Time;durP1;ratioP1;P1;durP2;ratioP2;P2;SDS_P1;SDS_P2;PMS_P1;PMS_P2;Temp;Humidity;BMP_temperature;BMP_pressure;BME280_temperature;BME280_humidity;BME280_pressure;Samples;Min_cycle;Max_cycle;Signal;HPM_P1;HPM_P2
2022/09/04 00:01:41;;;;;;;;;6.25;5.00;;;;;19.60;84.49;99341.00;5016200;28;45260;-58
2022/09/04 00:04:25;;;;;;;;;5.00;3.25;;;;;19.60;84.26;99332.13;5016563;28;45413;-58
2022/09/04 00:07:02;;;;;;;;;6.00;4.50;;;;;19.57;84.65;99335.00;4986368;28;45817;-58
2022/09/04 00:09:45;;;;;;;;;10.50;9.50;;;;;19.57;85.16;99343.91;5014353;28;45503;-58
2022/09/04 00:12:12;;;;;;;;;6.00;5.00;;;;;19.56;84.60;99341.31;5016012;28;45362;-58
2022/09/04 00:14:56;;;;;;;;;7.00;5.50;;;;;19.56;85.16;99334.16;5015720;28;45430;-59
2022/09/04 00:17:28;;;;;;;;;4.60;4.00;;;;;19.56;86.04;99331.47;5015813;28;45424;-58
2022/09/04 00:19:59;;;;;;;;;5.00;5.00;;;;;19.55;85.99;99329.78;5015871;28;45428;-59
2022/09/04 00:22:56;;;;;;;;;7.00;6.75;;;;;19.51;86.27;99326.47;5016054;28;45494;-58
2022/09/04 00:25:32;;;;;;;;;4.50;2.00;;;;;19.51;86.20;99326.47;5015728;28;45446;-58
2022/09/04 00:28:07;;;;;;;;;4.50;4.50;;;;;19.51;86.11;99323.78;5015800;28;45669;-58
2022/09/04 00:30:39;;;;;;;;;3.00;3.00;;;;;19.50;85.78;99331.94;5015826;28;45428;-58
2022/09/04 00:33:42;;;;;;;;;4.00;4.00;;;;;19.48;85.95;99337.34;5016175;28;45319;-58
2022/09/04 00:36:08;;;;;;;;;6.00;6.00;;;;;19.53;85.47;99326.34;5015965;28;45457;-58
2022/09/04 00:38:52;;;;;;;;;9.25;9.25;;;;;19.60;85.84;99324.94;5015071;28;46479;-58
2022/09/04 00:41:29;;;;;;;;;20.25;20.00;;;;;19.59;85.46;99325.06;5014808;28;45462;-59
2022/09/04 00:44:16;;;;;;;;;4.60;4.40;;;;;19.58;85.20;99323.34;5015386;28;45423;-58
2022/09/04 00:47:19;;;;;;;;;21.50;18.25;;;;;19.56;85.05;99314.59;5000815;28;45307;-58
2022/09/04 00:49:44;;;;;;;;;15.00;14.75;;;;;19.52;84.71;99321.97;5015570;28;46525;-58
2022/09/04 00:52:38;;;;;;;;;6.00;5.00;;;;;19.50;85.17;99315.88;5016123;28;45293;-58
2022/09/04 00:55:44;;;;;;;;;9.50;7.50;;;;;19.48;85.57;99309.75;5015242;28;45569;-58
2022/09/04 00:58:28;;;;;;;;;6.50;6.50;;;;;19.47;85.83;99308.03;5015242;28;45376;-59
2022/09/04 01:00:57;;;;;;;;;8.40;5.60;;;;;19.46;85.68;99309.84;5014396;28;46416;-59
2022/09/04 01:03:52;;;;;;;;;7.40;7.40;;;;;19.46;86.06;99311.69;5015397;28;45403;-58
2022/09/04 01:06:34;;;;;;;;;6.00;6.00;;;;;19.47;86.25;99308.03;5015317;28;45660;-58
2022/09/04 01:09:18;;;;;;;;;6.25;6.25;;;;;19.48;86.59;99307.06;5015151;28;45370;-58
2022/09/04 01:12:01;;;;;;;;;6.00;6.00;;;;;19.46;86.64;99307.19;5014926;28;45451;-58
2022/09/04 01:14:38;;;;;;;;;6.20;6.20;;;;;19.44;87.03;99303.78;5014929;28;45482;-58
2022/09/04 01:17:09;;;;;;;;;5.60;5.60;;;;;19.45;86.95;99309.97;5015144;28;45414;-58
2022/09/04 01:19:58;;;;;;;;;13.25;11.50;;;;;19.42;86.89;99297.72;5013084;28;45326;-58
2022/09/04 01:22:40;;;;;;;;;6.20;6.20;;;;;19.43;87.47;99307.44;5015157;28;46469;-57
2022/09/04 01:25:39;;;;;;;;;5.00;5.00;;;;;19.42;87.71;99311.06;5014176;28;45475;-58
2022/09/04 01:28:18;;;;;;;;;4.60;3.80;;;;;19.42;87.89;99311.06;5015181;28;45208;-58
2022/09/04 01:31:15;;;;;;;;;4.00;4.00;;;;;19.42;87.62;99313.75;5014801;28;45343;-58
2022/09/04 01:34:12;;;;;;;;;3.20;3.20;;;;;19.41;87.41;99320.06;5011662;28;46532;-58
2022/09/04 01:36:54;;;;;;;;;4.60;4.60;;;;;19.40;86.88;99314.81;5014970;28;45450;-58
2022/09/04 01:39:23;;;;;;;;;6.60;6.60;;;;;19.40;86.67;99314.81;5015139;28;45386;-58
2022/09/04 01:42:13;;;;;;;;;6.00;5.25;;;;;19.36;86.78;99318.69;5014850;28;45396;-58
2022/09/04 01:44:39;;;;;;;;;9.60;4.80;;;;;19.34;87.38;99313.44;5014908;28;46143;-58
2022/09/04 01:47:14;;;;;;;;;7.50;7.00;;;;;19.34;87.63;99315.25;5014810;28;45386;-58
2022/09/04 01:49:54;;;;;;;;;3.40;3.40;;;;;19.32;87.74;99327.88;5014882;28;45493;-58
2022/09/04 01:52:47;;;;;;;;;5.00;5.00;;;;;19.32;87.84;99322.53;5015128;28;45521;-58
2022/09/04 01:55:37;;;;;;;;;8.40;5.80;;;;;19.30;88.23;99325.31;5014406;28;46571;-58
2022/09/04 01:58:26;;;;;;;;;3.60;3.00;;;;;19.31;88.24;99326.16;5014993;28;45388;-58
2022/09/04 02:00:54;;;;;;;;;6.00;5.00;;;;;19.36;88.15;99322.22;5014913;28;45412;-58
2022/09/04 02:03:24;;;;;;;;;7.80;5.20;;;;;19.41;87.94;99327.22;5014654;28;45554;-59
2022/09/04 02:06:08;;;;;;;;;5.60;5.00;;;;;19.43;87.86;99331.50;5014500;28;45459;-58
2022/09/04 02:08:57;;;;;;;;;5.80;4.20;;;;;19.46;88.15;99331.25;5014923;28;45409;-58
2022/09/04 02:11:28;;;;;;;;;9.00;7.00;;;;;19.45;87.71;99329.53;5014454;28;45406;-58
2022/09/04 02:14:26;;;;;;;;;4.50;4.50;;;;;19.49;87.76;99325.72;5017778;28;45444;-58
2022/09/04 02:17:08;;;;;;;;;6.25;6.25;;;;;19.52;87.17;99324.66;5016756;28;46669;-58
2022/09/04 02:20:15;;;;;;;;;6.80;6.40;;;;;19.50;87.20;99331.94;5017904;28;45304;-58
2022/09/04 02:23:14;;;;;;;;;6.40;6.40;;;;;19.45;87.52;99324.19;5017976;28;45383;-58
2022/09/04 02:25:49;;;;;;;;;5.50;5.50;;;;;19.43;87.48;99331.50;5017647;28;45371;-58
2022/09/04 02:28:52;;;;;;;;;5.20;5.00;;;;;19.41;87.71;99325.41;5018073;28;46141;-58
2022/09/04 02:31:48;;;;;;;;;5.60;4.40;;;;;19.43;87.07;99330.66;5018231;28;45490;-58
2022/09/04 02:34:37;;;;;;;;;5.00;5.00;;;;;19.42;86.96;99334.28;5018030;28;45276;-58
2022/09/04 02:37:13;;;;;;;;;6.00;3.50;;;;;19.41;87.06;99329.91;5017876;28;45695;-58
2022/09/04 02:39:55;;;;;;;;;5.80;5.40;;;;;19.41;87.21;99327.22;5017419;28;45335;-58
2022/09/04 02:42:32;;;;;;;;;8.40;7.80;;;;;19.42;87.47;99332.47;5017638;28;45466;-58
2022/09/04 02:45:11;;;;;;;;;7.80;6.80;;;;;19.41;87.41;99335.25;5017383;28;45478;-58
2022/09/04 02:48:13;;;;;;;;;5.00;5.00;;;;;19.39;87.60;99342.53;5017617;28;45358;-58
2022/09/04 02:50:57;;;;;;;;;5.40;5.40;;;;;19.35;87.82;99341.88;5016923;28;45465;-58
2022/09/04 02:53:37;;;;;;;;;7.60;6.00;;;;;19.35;88.28;99347.25;5017512;28;45247;-58
2022/09/04 02:56:08;;;;;;;;;7.60;6.20;;;;;19.34;88.29;99353.53;5017075;28;45367;-58
2022/09/04 02:59:10;;;;;;;;;5.00;5.00;;;;;19.36;88.25;99348.09;5016613;28;45723;-59
2022/09/04 03:01:51;;;;;;;;;6.25;6.25;;;;;19.40;88.35;99344.25;4961834;28;46511;-59
2022/09/04 03:04:29;;;;;;;;;8.40;7.20;;;;;19.42;88.16;99344.97;5017236;28;45362;-58
2022/09/04 03:07:06;;;;;;;;;5.50;5.50;;;;;19.39;87.93;99338.03;5005856;28;45421;-59
2022/09/04 03:09:47;;;;;;;;;6.25;6.25;;;;;19.36;87.40;99337.41;5016818;28;45385;-59
2022/09/04 03:12:31;;;;;;;;;7.75;6.00;;;;;19.36;87.78;99334.72;5008958;28;46657;-59
2022/09/04 03:15:02;;;;;;;;;4.20;4.20;;;;;19.32;87.48;99335.91;5004807;28;45404;-58
2022/09/04 03:17:52;;;;;;;;;6.00;6.00;;;;;19.29;87.56;99349.50;5017373;28;45318;-58
2022/09/04 03:20:24;;;;;;;;;3.25;3.25;;;;;19.27;87.47;99344.25;5017058;28;45437;-58
2022/09/04 03:22:50;;;;;;;;;4.00;4.00;;;;;19.27;87.44;99346.91;5017260;28;45570;-58
2022/09/04 03:25:53;;;;;;;;;4.00;3.00;;;;;19.28;86.94;99339.75;5015929;28;45419;-59
2022/09/04 03:28:46;;;;;;;;;4.00;4.00;;;;;19.28;87.26;99340.59;4975414;28;45493;-58
2022/09/04 03:31:21;;;;;;;;;6.00;4.25;;;;;19.24;87.27;99344.50;4975136;28;45542;-58
2022/09/04 03:34:14;;;;;;;;;6.25;6.00;;;;;19.21;87.39;99335.84;4991933;28;45701;-58
2022/09/04 03:36:57;;;;;;;;;3.80;3.80;;;;;19.15;87.68;99343.31;5016713;28;45386;-58
2022/09/04 03:40:11;;;;;;;;;6.00;6.00;;;;;19.11;87.60;99352.50;5016837;28;45540;-58
2022/09/04 03:42:55;;;;;;;;;5.50;5.50;;;;;19.08;87.84;99343.88;4980356;28;45615;-58
2022/09/04 03:45:42;;;;;;;;;6.40;6.00;;;;;19.05;88.15;99344.94;5016224;28;47035;-58
2022/09/04 03:48:10;;;;;;;;;5.80;5.40;;;;;19.05;88.26;99344.09;5016542;28;45342;-58
2022/09/04 03:50:57;;;;;;;;;4.00;4.00;;;;;19.04;88.08;99350.41;5016824;28;45411;-58
2022/09/04 03:54:02;;;;;;;;;5.40;4.80;;;;;19.03;88.28;99349.56;5016334;28;45553;-58
2022/09/04 03:56:36;;;;;;;;;5.60;4.80;;;;;19.01;88.16;99346.13;5016268;28;45557;-58
2022/09/04 03:59:16;;;;;;;;;6.80;6.80;;;;;18.98;88.46;99349.00;5016446;28;45514;-59
2022/09/04 04:02:14;;;;;;;;;5.40;5.20;;;;;18.97;88.73;99349.13;5016309;28;45475;-59
2022/09/04 04:05:00;;;;;;;;;5.25;5.25;;;;;18.95;88.76;99348.38;5015835;28;45531;-58
2022/09/04 04:08:20;;;;;;;;;6.00;5.25;;;;;18.97;88.81;99341.09;5016214;28;46210;-58
2022/09/04 04:11:23;;;;;;;;;5.40;4.00;;;;;18.98;88.15;99340.13;4973839;28;45594;-58
2022/09/04 04:14:21;;;;;;;;;5.00;4.20;;;;;18.96;88.19;99344.72;5008317;28;45327;-58
2022/09/04 04:17:20;;;;;;;;;5.75;5.75;;;;;18.94;87.93;99350.19;4998207;28;46137;-58
2022/09/04 04:20:23;;;;;;;;;5.00;5.00;;;;;18.94;88.38;99346.66;5016208;28;46268;-58
2022/09/04 04:23:22;;;;;;;;;7.20;4.60;;;;;18.93;88.82;99351.19;5015979;28;45427;-58
2022/09/04 04:26:08;;;;;;;;;6.00;6.00;;;;;18.96;88.54;99353.59;5015638;28;45367;-58
2022/09/04 04:28:57;;;;;;;;;5.00;5.00;;;;;18.97;88.54;99357.13;5015716;28;45367;-58
2022/09/04 04:31:33;;;;;;;;;8.50;7.00;;;;;19.01;88.35;99358.63;5015614;28;45521;-58
2022/09/04 04:34:25;;;;;;;;;4.60;4.60;;;;;19.02;88.64;99369.22;5015509;28;45477;-59
2022/09/04 04:37:12;;;;;;;;;7.40;5.60;;;;;19.05;88.14;99360.13;5014729;28;45447;-58
2022/09/04 04:39:54;;;;;;;;;5.25;5.25;;;;;19.03;88.32;99365.59;5015405;28;45489;-58
2022/09/04 04:42:19;;;;;;;;;6.40;5.80;;;;;19.01;87.98;99364.84;5013203;28;45431;-58
2022/09/04 04:48:18;;;;;;;;;4.40;4.40;;;;;18.96;88.65;99377.66;4997986;28;45453;-58
2022/09/04 04:51:11;;;;;;;;;7.00;7.00;;;;;18.98;88.41;99377.53;5004341;28;45376;-58
2022/09/04 04:53:45;;;;;;;;;9.60;9.00;;;;;18.98;88.43;99378.41;5015435;28;46052;-58
2022/09/04 04:56:19;;;;;;;;;6.40;6.00;;;;;19.00;88.80;99376.47;5015474;28;45367;-58
2022/09/04 04:58:52;;;;;;;;;8.00;6.80;;;;;18.99;88.44;99372.09;5015455;28;45370;-58
2022/09/04 05:01:17;;;;;;;;;6.00;6.00;;;;;19.02;88.42;99371.88;5015359;28;45440;-58
2022/09/04 05:04:12;;;;;;;;;7.25;7.00;;;;;19.05;88.64;99374.34;5015180;28;46244;-58
2022/09/04 05:06:37;;;;;;;;;15.20;14.20;;;;;19.09;88.13;99380.34;5015096;28;45388;-58
2022/09/04 05:09:34;;;;;;;;;5.25;5.25;;;;;19.10;88.29;99374.03;5013581;28;45467;-58
2022/09/04 05:12:33;;;;;;;;;4.75;4.00;;;;;19.13;87.88;99382.66;5015025;28;45518;-58
2022/09/04 05:15:14;;;;;;;;;9.00;5.00;;;;;19.13;87.95;99387.16;5014806;28;45431;-58
2022/09/04 05:17:50;;;;;;;;;8.20;8.20;;;;;19.14;87.75;99383.50;5004961;28;45458;-58
2022/09/04 05:20:34;;;;;;;;;11.25;9.75;;;;;19.14;88.02;99394.22;5014531;28;45329;-58
2022/09/04 05:23:12;;;;;;;;;10.50;9.00;;;;;19.14;87.85;99389.72;5012807;28;45356;-58
2022/09/04 05:25:40;;;;;;;;;8.00;7.60;;;;;19.15;88.14;99393.25;5011900;28;45632;-58
2022/09/04 05:28:21;;;;;;;;;9.40;8.20;;;;;19.17;88.39;99392.19;5014258;28;45446;-61
2022/09/04 05:30:54;;;;;;;;;8.00;8.00;;;;;19.19;87.41;99394.75;5013508;28;45391;-61
2022/09/04 05:33:43;;;;;;;;;9.50;8.00;;;;;19.16;87.68;99400.31;5013877;28;45530;-60
2022/09/04 05:36:23;;;;;;;;;5.60;5.60;;;;;19.16;87.40;99395.81;5014107;28;46144;-60
2022/09/04 05:39:04;;;;;;;;;5.00;5.00;;;;;19.14;86.96;99403.09;5013880;28;45482;-61
2022/09/04 05:41:48;;;;;;;;;7.00;5.40;;;;;19.11;86.90;99403.28;5014735;28;45312;-60
2022/09/04 05:44:26;;;;;;;;;4.00;4.00;;;;;19.11;86.91;99405.09;5011649;28;45466;-60
2022/09/04 05:46:52;;;;;;;;;4.00;4.00;;;;;19.11;86.52;99405.09;5013756;28;46353;-60
2022/09/04 05:49:26;;;;;;;;;6.50;4.75;;;;;19.08;86.32;99416.03;5014407;28;45465;-60
2022/09/04 05:51:51;;;;;;;;;5.40;5.40;;;;;19.06;86.75;99415.28;5014191;28;45444;-60
2022/09/04 05:55:02;;;;;;;;;4.50;4.25;;;;;19.04;86.54;99418.06;5012858;28;45390;-60
2022/09/04 05:58:05;;;;;;;;;7.60;7.20;;;;;19.03;86.62;99416.34;5014688;28;46594;-60
2022/09/04 06:00:59;;;;;;;;;6.20;6.20;;;;;19.01;86.68;99414.75;5009193;28;45432;-60
2022/09/04 06:03:46;;;;;;;;;6.20;6.20;;;;;19.01;87.36;99422.75;5013861;28;45356;-59
2022/09/04 06:06:45;;;;;;;;;8.75;8.75;;;;;19.01;87.14;99428.09;5014435;28;45375;-61
2022/09/04 06:09:30;;;;;;;;;9.25;8.00;;;;;19.01;87.61;99433.44;5013684;28;45430;-60
2022/09/04 06:12:27;;;;;;;;;9.40;9.00;;;;;19.03;87.32;99439.56;5013245;28;45371;-59
2022/09/04 06:15:24;;;;;;;;;7.60;7.40;;;;;19.03;87.65;99443.06;5013783;28;45482;-56
2022/09/04 06:17:52;;;;;;;;;6.25;6.00;;;;;19.04;87.70;99435.91;4986764;28;45532;-56
2022/09/04 06:20:42;;;;;;;;;10.60;9.40;;;;;19.04;87.92;99439.44;5014200;28;45545;-59
2022/09/04 06:23:22;;;;;;;;;10.60;8.20;;;;;19.07;88.00;99435.72;5013742;28;45408;-59
2022/09/04 06:25:56;;;;;;;;;10.50;9.75;;;;;19.09;88.41;99434.66;5006001;28;45592;-59
2022/09/04 06:28:43;;;;;;;;;9.00;9.00;;;;;19.12;88.46;99442.41;5006624;28;45425;-59
2022/09/04 06:31:20;;;;;;;;;7.25;7.25;;;;;19.15;88.14;99444.88;5006539;28;46365;-59
2022/09/04 06:34:28;;;;;;;;;9.00;8.40;;;;;19.17;88.39;99442.97;5013038;28;45445;-58
2022/09/04 06:36:59;;;;;;;;;7.60;7.60;;;;;19.22;88.49;99441.78;5013501;28;45497;-59
2022/09/04 06:39:44;;;;;;;;;9.50;7.75;;;;;19.24;87.83;99443.41;5012713;28;45323;-59
2022/09/04 06:42:20;;;;;;;;;7.80;7.80;;;;;19.27;88.17;99443.16;5012424;28;46188;-59
2022/09/04 06:45:15;;;;;;;;;7.20;6.00;;;;;19.31;88.05;99452.69;5003855;28;45462;-59
2022/09/04 06:48:05;;;;;;;;;9.00;8.00;;;;;19.35;87.49;99447.97;5005070;28;45477;-59
2022/09/04 06:51:07;;;;;;;;;6.25;6.25;;;;;19.38;87.61;99448.63;5013426;28;45506;-59
2022/09/04 06:54:01;;;;;;;;;7.80;5.00;;;;;19.45;87.94;99443.66;4922609;28;45588;-59
2022/09/04 06:56:32;;;;;;;;;5.60;5.60;;;;;19.51;87.07;99443.28;5013245;28;45449;-59
2022/09/04 06:59:30;;;;;;;;;6.80;6.00;;;;;19.56;87.02;99445.63;5013563;28;45388;-59
2022/09/04 07:02:08;;;;;;;;;6.00;5.00;;;;;19.60;86.84;99442.63;5016617;28;45499;-59
2022/09/04 07:04:44;;;;;;;;;12.75;12.50;;;;;19.67;86.83;99440.34;5015999;28;46528;-59
2022/09/04 07:07:31;;;;;;;;;10.00;9.40;;;;;19.72;87.14;99444.41;5015631;28;45438;-60
2022/09/04 07:10:05;;;;;;;;;8.00;7.75;;;;;19.78;86.58;99449.31;5014911;28;45439;-65
2022/09/04 07:12:39;;;;;;;;;7.25;6.00;;;;;19.88;86.15;99448.66;5015161;28;45480;-60
2022/09/04 07:15:33;;;;;;;;;8.80;7.80;;;;;19.94;85.95;99432.97;5015215;28;45509;-59
2022/09/04 07:18:23;;;;;;;;;9.20;7.60;;;;;20.02;85.41;99435.09;5016479;28;45370;-59
2022/09/04 07:21:05;;;;;;;;;13.25;11.00;;;;;20.04;84.90;99438.53;5016647;28;45324;-58
2022/09/04 07:23:53;;;;;;;;;9.25;9.00;;;;;20.09;84.60;99437.22;5017015;28;45407;-59
2022/09/04 07:26:27;;;;;;;;;8.80;8.80;;;;;20.13;84.76;99440.50;5016454;28;45746;-59
2022/09/04 07:29:14;;;;;;;;;6.60;5.00;;;;;20.16;84.60;99440.28;5015835;28;45408;-59
2022/09/04 07:31:46;;;;;;;;;6.40;6.40;;;;;20.20;84.69;99442.63;5015746;28;45486;-55
2022/09/04 07:34:36;;;;;;;;;6.40;6.00;;;;;20.27;84.39;99444.88;5016218;28;45437;-59
2022/09/04 07:37:11;;;;;;;;;7.20;6.20;;;;;20.31;83.41;99441.81;5016339;28;45606;-61
2022/09/04 07:39:47;;;;;;;;;7.20;7.00;;;;;20.35;84.09;99451.34;5015290;28;45430;-59
2022/09/04 07:42:17;;;;;;;;;8.00;7.00;;;;;20.41;83.20;99450.06;5015961;28;45534;-59
2022/09/04 07:44:48;;;;;;;;;5.80;5.40;;;;;20.45;82.76;99454.19;5015828;28;45352;-59
2022/09/04 07:47:37;;;;;;;;;7.80;7.80;;;;;20.48;82.48;99457.50;5002029;28;45461;-63
2022/09/04 07:50:34;;;;;;;;;7.00;7.00;;;;;20.51;82.91;99459.97;5015794;28;45383;-59
2022/09/04 07:53:24;;;;;;;;;9.80;8.20;;;;;20.58;82.83;99463.03;5016253;28;45455;-58
2022/09/04 07:56:02;;;;;;;;;9.75;6.25;;;;;20.67;82.34;99465.00;5015865;28;46218;-58
2022/09/04 07:58:30;;;;;;;;;7.00;7.00;;;;;20.74;81.95;99474.31;5015925;28;45295;-58
2022/09/04 08:01:15;;;;;;;;;143.00;132.25;;;;;20.81;82.15;99474.66;5016024;28;45312;-59
2022/09/04 08:03:54;;;;;;;;;1.25;1.25;;;;;20.93;81.10;99473.75;5015672;28;45411;-61
2022/09/04 08:06:28;;;;;;;;;10.75;9.75;;;;;20.99;80.47;99477.75;5014405;28;45406;-63
2022/09/04 08:09:07;;;;;;;;;9.80;9.20;;;;;21.00;80.07;99482.16;5013133;28;45569;-61
2022/09/04 08:11:50;;;;;;;;;10.60;10.60;;;;;21.01;79.98;99475.81;5014902;28;45472;-61
2022/09/04 08:14:30;;;;;;;;;12.50;12.50;;;;;21.04;79.32;99476.44;5014517;28;45402;-60
2022/09/04 08:17:23;;;;;;;;;12.00;11.75;;;;;21.08;79.08;99482.44;5015516;28;45612;-60
2022/09/04 08:20:15;;;;;;;;;13.25;12.00;;;;;21.10;78.62;99475.97;5014824;28;45488;-59
2022/09/04 08:23:18;;;;;;;;;9.40;9.40;;;;;21.16;78.55;99469.25;5014199;28;45585;-59
2022/09/04 08:26:18;;;;;;;;;8.80;8.40;;;;;21.24;78.69;99480.28;5014525;28;45481;-60
2022/09/04 08:28:55;;;;;;;;;8.00;8.00;;;;;21.29;79.06;99483.44;5014436;28;45470;-59
2022/09/04 08:31:39;;;;;;;;;8.40;6.80;;;;;21.34;79.07;99489.31;5014908;28;46330;-59
2022/09/04 08:34:26;;;;;;;;;7.00;7.00;;;;;21.40;79.00;99482.63;5014463;28;45487;-58
2022/09/04 08:37:22;;;;;;;;;8.40;7.20;;;;;21.44;78.03;99482.28;5013987;28;45640;-59
2022/09/04 08:40:17;;;;;;;;;8.20;8.00;;;;;21.49;77.81;99490.78;5014091;28;45369;-60
2022/09/04 08:42:57;;;;;;;;;6.40;6.00;;;;;21.54;77.94;99483.25;5014566;28;46564;-62
2022/09/04 08:45:38;;;;;;;;;9.00;9.00;;;;;21.61;79.52;99482.75;5010047;28;45518;-61
2022/09/04 08:48:18;;;;;;;;;9.00;7.25;;;;;21.72;77.49;99483.59;5008210;28;45445;-60
2022/09/04 08:50:52;;;;;;;;;16.75;16.50;;;;;21.81;76.54;99476.63;5003041;28;45462;-60
2022/09/04 08:53:36;;;;;;;;;12.60;10.80;;;;;21.87;76.07;99473.47;5015185;28;45511;-67
2022/09/04 08:56:27;;;;;;;;;10.80;9.80;;;;;21.92;75.60;99473.94;5014876;28;45367;-59
2022/09/04 08:59:11;;;;;;;;;15.20;11.60;;;;;21.99;75.15;99476.97;5014542;28;45345;-61
2022/09/04 09:01:55;;;;;;;;;14.25;13.00;;;;;22.03;74.67;99473.94;5012928;28;46250;-62
2022/09/04 09:04:53;;;;;;;;;10.00;7.60;;;;;22.08;74.13;99470.91;5008609;28;45437;-61
2022/09/04 09:07:43;;;;;;;;;7.60;7.60;;;;;22.15;73.44;99469.41;5012930;28;45511;-61
2022/09/04 09:10:41;;;;;;;;;12.40;12.40;;;;;22.22;73.37;99465.25;5011492;28;45581;-61
2022/09/04 09:13:25;;;;;;;;;9.80;9.80;;;;;22.31;72.97;99466.28;5013530;28;45523;-62
2022/09/04 09:16:26;;;;;;;;;8.80;8.40;;;;;22.36;72.23;99464.94;4995791;28;45680;-62
2022/09/04 09:19:36;;;;;;;;;6.20;5.60;;;;;22.41;71.77;99460.03;5010834;28;45446;-60
2022/09/04 09:22:35;;;;;;;;;7.80;6.40;;;;;22.45;71.76;99463.34;4996248;28;45507;-60
2022/09/04 09:25:21;;;;;;;;;8.80;6.80;;;;;22.49;70.81;99456.69;5013950;28;45375;-60
2022/09/04 09:28:04;;;;;;;;;7.00;6.20;;;;;22.57;71.40;99459.63;5001710;28;46654;-60
2022/09/04 09:30:55;;;;;;;;;5.80;5.80;;;;;22.65;69.21;99462.50;5013933;28;45522;-60
2022/09/04 09:33:51;;;;;;;;;40.60;35.20;;;;;22.70;69.85;99459.44;5013633;28;45571;-60
2022/09/04 09:36:43;;;;;;;;;4.20;3.60;;;;;22.76;68.37;99453.53;5013291;28;45363;-62
2022/09/04 09:39:27;;;;;;;;;8.40;8.40;;;;;22.78;68.56;99449.78;5011738;28;45405;-62
2022/09/04 09:42:37;;;;;;;;;5.00;5.00;;;;;22.84;67.96;99443.84;5012978;28;45274;-62
2022/09/04 09:45:21;;;;;;;;;7.60;6.00;;;;;22.92;67.97;99445.91;4970791;28;45502;-62
2022/09/04 09:48:33;;;;;;;;;7.60;6.00;;;;;22.92;68.84;99444.06;5012722;28;45682;-62
2022/09/04 09:51:11;;;;;;;;;5.40;5.40;;;;;22.96;68.97;99447.31;4994775;28;45543;-62
2022/09/04 09:54:33;;;;;;;;;4.20;4.20;;;;;23.00;67.58;99448.78;5013216;28;45445;-62
2022/09/04 09:57:36;;;;;;;;;6.00;6.00;;;;;23.09;68.61;99436.38;4971211;28;45596;-62
2022/09/04 10:00:07;;;;;;;;;4.00;4.00;;;;;23.18;67.61;99438.25;4971962;28;45609;-62
2022/09/04 10:02:43;;;;;;;;;5.00;5.00;;;;;23.28;67.86;99442.72;5000238;28;46674;-61
2022/09/04 10:05:38;;;;;;;;;5.80;5.00;;;;;23.36;67.53;99433.97;5013628;28;45512;-62
2022/09/04 10:08:12;;;;;;;;;3.00;3.00;;;;;23.46;67.15;99431.34;5012786;28;45371;-62
2022/09/04 10:10:56;;;;;;;;;2.20;2.00;;;;;23.57;67.43;99442.03;5013201;28;45525;-61
2022/09/04 10:13:40;;;;;;;;;5.40;4.60;;;;;23.64;66.48;99437.78;5013448;28;46328;-62
2022/09/04 10:16:49;;;;;;;;;4.20;4.20;;;;;23.74;65.57;99432.44;5013486;28;45185;-62
2022/09/04 10:19:20;;;;;;;;;4.60;4.60;;;;;23.83;64.87;99434.28;4971891;28;45678;-62
2022/09/04 10:21:49;;;;;;;;;5.40;5.40;;;;;23.88;64.88;99429.34;4971323;28;45480;-63
2022/09/04 10:25:05;;;;;;;;;6.40;5.20;;;;;23.96;64.27;99432.22;4985300;28;46547;-61
2022/09/04 10:27:45;;;;;;;;;809.75;603.00;;;;;24.07;64.27;99440.19;4973870;28;45557;-59
2022/09/04 10:30:18;;;;;;;;;7.00;6.00;;;;;24.16;63.66;99430.38;5012731;28;45320;-63
2022/09/04 10:33:09;;;;;;;;;4.20;4.20;;;;;24.22;62.20;99427.16;5013556;28;45408;-63
2022/09/04 10:36:18;;;;;;;;;4.80;4.80;;;;;24.26;61.96;99429.47;5015089;28;45775;-63
2022/09/04 10:42:22;;;;;;;;;0.20;0.20;;;;;24.42;61.71;99425.34;5016025;28;45511;-63
2022/09/04 10:45:29;;;;;;;;;5.40;5.40;;;;;24.51;61.82;99422.63;5014775;28;45466;-63
2022/09/04 10:48:33;;;;;;;;;6.00;5.20;;;;;24.62;61.48;99419.81;4964933;28;46664;-62
2022/09/04 10:51:07;;;;;;;;;5.40;5.00;;;;;24.74;60.56;99408.88;5016867;28;45379;-58
2022/09/04 10:54:04;;;;;;;;;3.80;3.80;;;;;24.78;58.98;99413.84;5016371;28;45454;-59
2022/09/04 10:56:34;;;;;;;;;4.60;4.20;;;;;24.81;59.87;99413.53;5007994;28;45500;-59
2022/09/04 10:59:11;;;;;;;;;8.40;6.80;;;;;24.88;58.75;99416.50;5016317;28;46209;-59
2022/09/04 11:01:53;;;;;;;;;4.40;4.20;;;;;24.92;59.27;99410.69;5016172;28;45466;-59
2022/09/04 11:04:38;;;;;;;;;4.60;4.60;;;;;24.99;58.69;99416.34;5016473;28;45478;-59
2022/09/04 11:07:28;;;;;;;;;4.20;4.20;;;;;25.09;57.84;99410.97;4998483;28;45645;-59
2022/09/04 11:09:56;;;;;;;;;5.00;3.20;;;;;25.15;57.45;99404.94;5014933;28;45555;-61
2022/09/04 11:12:44;;;;;;;;;3.00;3.00;;;;;25.22;56.95;99400.69;5016760;28;45308;-60
2022/09/04 11:15:39;;;;;;;;;3.60;3.60;;;;;25.28;57.45;99409.06;5016739;28;45508;-61
2022/09/04 11:18:50;;;;;;;;;6.00;4.00;;;;;25.36;57.82;99398.34;5016640;28;45340;-59
2022/09/04 11:21:50;;;;;;;;;6.20;6.20;;;;;25.44;57.33;99399.47;5000724;28;46215;-61
2022/09/04 11:24:21;;;;;;;;;3.20;3.20;;;;;25.47;56.91;99388.38;5015975;28;45387;-59
2022/09/04 11:27:28;;;;;;;;;5.80;4.60;;;;;25.48;57.58;99380.09;5016286;28;45423;-61
2022/09/04 11:30:47;;;;;;;;;284.00;253.00;;;;;25.59;56.63;99377.22;5001954;28;45326;-59
2022/09/04 11:33:43;;;;;;;;;4.40;4.40;;;;;25.63;56.48;99381.34;4983594;28;46501;-68
2022/09/04 11:36:42;;;;;;;;;1.00;1.00;;;;;25.65;56.51;99378.47;5005422;28;45288;-67
2022/09/04 11:39:17;;;;;;;;;3.40;3.40;;;;;25.65;56.40;99378.47;5014658;28;45401;-67
2022/09/04 11:42:19;;;;;;;;;4.60;4.60;;;;;25.66;56.27;99372.06;5015103;28;45521;-67
2022/09/04 11:45:15;;;;;;;;;5.40;4.20;;;;;25.69;55.67;99369.94;5014474;28;47101;-67
2022/09/04 11:48:02;;;;;;;;;3.80;3.80;;;;;25.77;55.45;99366.47;4988693;28;45438;-68
2022/09/04 11:50:59;;;;;;;;;5.20;5.20;;;;;25.87;55.32;99361.00;5014727;28;45343;-69
2022/09/04 11:53:36;;;;;;;;;6.20;5.20;;;;;25.95;54.97;99363.81;4997941;28;45690;-69
2022/09/04 11:56:17;;;;;;;;;3.40;3.40;;;;;26.02;54.84;99364.88;5016042;28;45388;-69
2022/09/04 11:58:48;;;;;;;;;3.80;3.80;;;;;26.08;53.67;99356.16;5015891;28;45382;-68
2022/09/04 12:01:43;;;;;;;;;4.00;4.00;;;;;26.15;54.38;99359.06;5008611;28;45397;-65
2022/09/04 12:04:08;;;;;;;;;5.00;4.20;;;;;26.21;54.06;99343.09;4996813;28;45561;-68
2022/09/04 12:06:34;;;;;;;;;4.25;4.25;;;;;26.27;54.11;99341.63;5015299;28;45541;-67
2022/09/04 12:09:21;;;;;;;;;1113.25;662.00;;;;;26.36;54.26;99335.31;5013557;28;45494;-60
2022/09/04 12:12:10;;;;;;;;;5.60;5.60;;;;;26.47;53.81;99343.19;5002773;28;45416;-60
2022/09/04 12:15:21;;;;;;;;;5.40;5.40;;;;;26.54;53.76;99330.72;5014937;28;45414;-60
2022/09/04 12:17:55;;;;;;;;;3.20;3.20;;;;;26.62;52.86;99338.06;4987135;28;46406;-60
2022/09/04 12:20:49;;;;;;;;;4.80;4.80;;;;;26.69;53.07;99339.97;5012763;28;45478;-60
2022/09/04 12:23:23;;;;;;;;;5.40;5.20;;;;;26.75;52.66;99347.44;5013984;28;45350;-59
2022/09/04 12:26:08;;;;;;;;;4.80;4.80;;;;;26.81;52.98;99337.88;5015034;28;45343;-56
2022/09/04 12:28:51;;;;;;;;;6.40;5.00;;;;;26.88;53.23;99332.66;5007609;28;45451;-57
2022/09/04 12:31:22;;;;;;;;;4.80;4.60;;;;;26.92;52.59;99336.72;5014595;28;45346;-57
2022/09/04 12:34:08;;;;;;;;;5.00;5.00;;;;;26.97;53.36;99335.28;5015067;28;45562;-57
2022/09/04 12:36:58;;;;;;;;;5.00;5.00;;;;;27.03;53.40;99337.31;5014769;28;45362;-58
2022/09/04 12:39:38;;;;;;;;;3.80;3.80;;;;;27.09;52.70;99341.25;5014180;28;46400;-59
2022/09/04 12:42:12;;;;;;;;;4.60;4.60;;;;;27.14;52.36;99321.84;4999493;28;45424;-59
2022/09/04 12:44:53;;;;;;;;;3.80;3.80;;;;;27.21;52.04;99329.13;5015036;28;45376;-58
2022/09/04 12:47:27;;;;;;;;;5.60;5.20;;;;;27.22;52.37;99338.94;5002212;28;45414;-59
2022/09/04 12:49:57;;;;;;;;;2.80;2.80;;;;;27.22;50.89;99340.81;5014496;28;45506;-57
2022/09/04 12:52:56;;;;;;;;;3.20;3.20;;;;;27.21;51.08;99339.97;5013652;28;45393;-57
2022/09/04 12:56:09;;;;;;;;;4.80;4.00;;;;;27.20;51.46;99332.00;5000908;28;45410;-59
2022/09/04 12:58:37;;;;;;;;;4.00;3.00;;;;;27.22;51.89;99327.28;5013841;28;45517;-59
2022/09/04 13:01:30;;;;;;;;;4.80;3.40;;;;;27.28;52.21;99330.19;5013556;28;45464;-58
2022/09/04 13:04:08;;;;;;;;;3.20;2.80;;;;;27.36;51.11;99332.06;5013936;28;45354;-57